Time,TemperatureF,DewpointF,PressureIn,WindDirection,WindDirectionDegrees,WindSpeedMPH,WindSpeedGustMPH,Humidity,HourlyPrecipIn,Conditions,Clouds,dailyrainin,SoftwareType,DateUTC
2013-01-19 00:00:00,28.1,26.1,30.52,ESE,120,0.0,0.0,92,0.00,,,0.18,HR-IXPWINDi_r2_v1.2.,2013-01-19 05:00:00,
2013-01-19 00:05:00,28.0,26.0,30.51,ESE,120,0.0,2.0,92,0.00,,,0.00,HR-IXPWINDi_r2_v1.2.,2013-01-19 05:05:00,
2013-01-19 00:10:00,28.0,26.0,30.51,ESE,120,0.0,2.0,92,0.00,,,0.00,HR-IXPWINDi_r2_v1.2.,2013-01-19 05:10:00,
2013-01-19 00:15:00,27.9,25.9,30.51,ESE,119,0.0,2.0,92,0.00,,,0.00,HR-IXPWINDi_r2_v1.2.,2013-01-19 05:15:00,
2013-01-19 00:20:00,27.9,25.9,30.51,ESE,119,0.0,2.0,92,0.00,,,0.00,HR-IXPWINDi_r2_v1.2.,2013-01-19 05:20:00,
2013-01-19 00:25:00,27.8,25.8,30.51,ESE,119,0.0,1.0,92,0.00,,,0.00,HR-IXPWINDi_r2_v1.2.,2013-01-19 05:25:00,
2013-01-19 00:30:00,27.6,25.6,30.51,ESE,109,1.0,2.0,92,0.00,,,0.00,HR-IXPWINDi_r2_v1.2.,2013-01-19 05:30:00,
2013-01-19 00:35:00,27.5,25.5,30.51,ESE,109,0.0,2.0,92,0.00,,,0.00,HR-IXPWINDi_r2_v1.2.,2013-01-19 05:35:00,
2013-01-19 00:40:00,27.4,25.4,30.51,ESE,109,0.0,2.0,92,0.00,,,0.00,HR-IXPWINDi_r2_v1.2.,2013-01-19 05:40:00,
2013-01-19 00:45:00,27.4,25.4,30.50,ESE,104,2.0,3.0,92,0.00,,,0.00,HR-IXPWINDi_r2_v1.2.,2013-01-19 05:45:00,
2013-01-19 00:51:00,27.4,25.6,30.50,East,101,0.0,3.0,93,0.00,,,0.00,HR-IXPWINDi_r2_v1.2.,2013-01-19 05:51:00,
2013-01-19 00:56:00,27.3,25.3,30.50,East,101,0.0,3.0,92,0.00,,,0.00,HR-IXPWINDi_r2_v1.2.,2013-01-19 05:56:00,
2013-01-19 01:01:00,27.2,25.4,30.51,East,101,0.0,1.0,93,0.00,,,0.00,HR-IXPWINDi_r2_v1.2.,2013-01-19 06:01:00,
2013-01-19 01:06:00,27.2,25.4,30.51,East,101,1.0,1.0,93,0.00,,,0.00,HR-IXPWINDi_r2_v1.2.,2013-01-19 06:06:00,
2013-01-19 01:11:00,27.2,25.4,30.51,East,101,0.0,1.0,93,0.00,,,0.00,HR-IXPWINDi_r2_v1.2.,2013-01-19 06:11:00,
2013-01-19 01:16:00,27.2,25.4,30.51,SE,144,0.0,3.0,93,0.00,,,0.00,HR-IXPWINDi_r2_v1.2.,2013-01-19 06:16:00,
2013-01-19 01:22:00,27.3,25.5,30.51,SE,144,0.0,3.0,93,0.00,,,0.00,HR-IXPWINDi_r2_v1.2.,2013-01-19 06:22:00,
2013-01-19 01:27:00,27.3,25.3,30.50,SE,144,1.0,2.0,92,0.00,,,0.00,HR-IXPWINDi_r2_v1.2.,2013-01-19 06:27:00,
2013-01-19 01:32:00,27.3,25.3,30.50,SE,144,0.0,2.0,92,0.00,,,0.00,HR-IXPWINDi_r2_v1.2.,2013-01-19 06:32:00,
2013-01-19 01:37:00,27.4,25.4,30.50,SE,144,0.0,2.0,92,0.00,,,0.00,HR-IXPWINDi_r2_v1.2.,2013-01-19 06:37:00,
2013-01-19 01:42:00,27.2,25.2,30.50,SE,143,0.0,2.0,92,0.00,,,0.00,HR-IXPWINDi_r2_v1.2.,2013-01-19 06:42:00,
2013-01-19 01:47:00,27.1,25.1,30.50,SE,144,1.0,2.0,92,0.00,,,0.00,HR-IXPWINDi_r2_v1.2.,2013-01-19 06:47:00,
2013-01-19 01:52:00,27.1,25.1,30.50,SE,144,0.0,2.0,92,0.00,,,0.00,HR-IXPWINDi_r2_v1.2.,2013-01-19 06:52:00,
2013-01-19 01:58:00,27.2,25.2,30.50,SE,144,0.0,2.0,92,0.00,,,0.00,HR-IXPWINDi_r2_v1.2.,2013-01-19 06:58:00,
2013-01-19 02:03:00,27.3,25.0,30.50,SE,144,0.0,3.0,91,0.00,,,0.00,HR-IXPWINDi_r2_v1.2.,2013-01-19 07:03:00,
2013-01-19 02:08:00,27.2,24.9,30.50,SE,134,0.0,3.0,91,0.00,,,0.00,HR-IXPWINDi_r2_v1.2.,2013-01-19 07:08:00,
2013-01-19 02:13:00,27.1,24.8,30.50,ESE,117,1.0,3.0,91,0.00,,,0.00,HR-IXPWINDi_r2_v1.2.,2013-01-19 07:13:00,
2013-01-19 02:19:00,27.2,25.2,30.50,ESE,116,1.0,3.0,92,0.00,,,0.00,HR-IXPWINDi_r2_v1.2.,2013-01-19 07:19:00,
2013-01-19 02:24:00,27.7,25.4,30.50,SSE,155,3.0,4.0,91,0.00,,,0.00,HR-IXPWINDi_r2_v1.2.,2013-01-19 07:24:00,
2013-01-19 02:29:00,28.4,25.8,30.50,SSE,165,0.0,9.0,90,0.00,,,0.00,HR-IXPWINDi_r2_v1.2.,2013-01-19 07:29:00,
2013-01-19 02:34:00,29.0,26.2,30.50,SSW,202,0.0,9.0,89,0.00,,,0.00,HR-IXPWINDi_r2_v1.2.,2013-01-19 07:34:00,
2013-01-19 02:39:00,29.5,26.4,30.50,East,89,2.0,4.0,88,0.00,,,0.00,HR-IXPWINDi_r2_v1.2.,2013-01-19 07:39:00,
2013-01-19 02:44:00,30.2,26.5,30.50,South,188,1.0,9.0,86,0.00,,,0.00,HR-IXPWINDi_r2_v1.2.,2013-01-19 07:44:00,
2013-01-19 02:50:00,30.1,26.4,30.50,South,175,1.0,9.0,86,0.00,,,0.00,HR-IXPWINDi_r2_v1.2.,2013-01-19 07:50:00,
2013-01-19 02:55:00,30.2,26.5,30.50,NW,312,2.0,5.0,86,0.00,,,0.00,HR-IXPWINDi_r2_v1.2.,2013-01-19 07:55:00,
2013-01-19 03:00:00,30.3,26.6,30.50,ENE,70,2.0,5.0,86,0.00,,,0.00,HR-IXPWINDi_r2_v1.2.,2013-01-19 08:00:00,
2013-01-19 03:05:00,30.2,26.2,30.50,ESE,104,1.0,4.0,85,0.00,,,0.00,HR-IXPWINDi_r2_v1.2.,2013-01-19 08:05:00,
2013-01-19 03:10:00,30.3,26.3,30.49,South,171,2.0,4.0,85,0.00,,,0.00,HR-IXPWINDi_r2_v1.2.,2013-01-19 08:10:00,
2013-01-19 03:16:00,30.2,26.2,30.50,ESE,122,2.0,5.0,85,0.00,,,0.00,HR-IXPWINDi_r2_v1.2.,2013-01-19 08:16:00,
2013-01-19 03:21:00,30.2,26.2,30.49,East,95,1.0,5.0,85,0.00,,,0.00,HR-IXPWINDi_r2_v1.2.,2013-01-19 08:21:00,
2013-01-19 03:26:00,30.2,26.2,30.49,East,96,1.0,5.0,85,0.00,,,0.00,HR-IXPWINDi_r2_v1.2.,2013-01-19 08:26:00,
2013-01-19 03:31:00,30.3,26.3,30.49,ESE,105,2.0,5.0,85,0.00,,,0.00,HR-IXPWINDi_r2_v1.2.,2013-01-19 08:31:00,
2013-01-19 03:36:00,30.6,26.3,30.49,East,92,2.0,6.0,84,0.00,,,0.00,HR-IXPWINDi_r2_v1.2.,2013-01-19 08:36:00,
2013-01-19 03:42:00,31.0,26.7,30.49,North,9,3.0,6.0,84,0.00,,,0.00,HR-IXPWINDi_r2_v1.2.,2013-01-19 08:42:00,
2013-01-19 03:47:00,31.3,26.7,30.49,SSW,205,1.0,7.0,83,0.00,,,0.00,HR-IXPWINDi_r2_v1.2.,2013-01-19 08:47:00,
2013-01-19 03:52:00,31.6,26.7,30.49,South,184,0.0,7.0,82,0.00,,,0.00,HR-IXPWINDi_r2_v1.2.,2013-01-19 08:52:00,
2013-01-19 03:57:00,31.9,26.7,30.48,East,96,0.0,7.0,81,0.00,,,0.00,HR-IXPWINDi_r2_v1.2.,2013-01-19 08:57:00,
2013-01-19 04:02:00,32.0,26.8,30.48,NNW,331,1.0,3.0,81,0.00,,,0.00,HR-IXPWINDi_r2_v1.2.,2013-01-19 09:02:00,
2013-01-19 04:07:00,32.1,26.9,30.48,South,171,0.0,4.0,81,0.00,,,0.00,HR-IXPWINDi_r2_v1.2.,2013-01-19 09:07:00,
2013-01-19 04:12:00,32.0,26.8,30.48,ENE,62,1.0,4.0,81,0.00,,,0.00,HR-IXPWINDi_r2_v1.2.,2013-01-19 09:12:00,
2013-01-19 04:18:00,31.9,26.7,30.48,SE,133,1.0,5.0,81,0.00,,,0.00,HR-IXPWINDi_r2_v1.2.,2013-01-19 09:18:00,
2013-01-19 04:23:00,31.9,26.7,30.48,ESE,108,2.0,5.0,81,0.00,,,0.00,HR-IXPWINDi_r2_v1.2.,2013-01-19 09:23:00,
2013-01-19 04:28:00,31.9,26.7,30.48,SE,143,2.0,5.0,81,0.00,,,0.00,HR-IXPWINDi_r2_v1.2.,2013-01-19 09:28:00,
2013-01-19 04:33:00,32.1,26.6,30.47,NNW,345,2.0,10.0,80,0.00,,,0.00,HR-IXPWINDi_r2_v1.2.,2013-01-19 09:33:00,
2013-01-19 04:38:00,32.2,26.7,30.47,East,88,1.0,10.0,80,0.00,,,0.00,HR-IXPWINDi_r2_v1.2.,2013-01-19 09:38:00,
2013-01-19 04:43:00,31.3,26.4,30.47,ESE,110,1.0,5.0,82,0.00,,,0.00,HR-IXPWINDi_r2_v1.2.,2013-01-19 09:43:00,
2013-01-19 04:49:00,30.4,25.8,30.47,ESE,108,0.0,3.0,83,0.00,,,0.00,HR-IXPWINDi_r2_v1.2.,2013-01-19 09:49:00,
2013-01-19 04:54:00,29.7,25.7,30.47,East,92,3.0,6.0,85,0.00,,,0.00,HR-IXPWINDi_r2_v1.2.,2013-01-19 09:54:00,
2013-01-19 04:59:00,29.4,25.7,30.48,NE,56,2.0,6.0,86,0.00,,,0.00,HR-IXPWINDi_r2_v1.2.,2013-01-19 09:59:00,
2013-01-19 05:04:00,29.8,25.8,30.48,East,88,2.0,6.0,85,0.00,,,0.00,HR-IXPWINDi_r2_v1.2.,2013-01-19 10:04:00,
2013-01-19 05:09:00,30.5,25.9,30.47,WSW,239,0.0,6.0,83,0.00,,,0.00,HR-IXPWINDi_r2_v1.2.,2013-01-19 10:09:00,
2013-01-19 05:14:00,31.0,26.4,30.47,South,187,1.0,6.0,83,0.00,,,0.00,HR-IXPWINDi_r2_v1.2.,2013-01-19 10:14:00,
2013-01-19 05:19:00,31.5,26.3,30.47,SSW,197,0.0,7.0,81,0.00,,,0.00,HR-IXPWINDi_r2_v1.2.,2013-01-19 10:19:00,
2013-01-19 05:25:00,31.6,26.4,30.47,North,355,1.0,7.0,81,0.00,,,0.00,HR-IXPWINDi_r2_v1.2.,2013-01-19 10:25:00,
2013-01-19 05:30:00,31.5,26.3,30.47,South,182,1.0,7.0,81,0.00,,,0.00,HR-IXPWINDi_r2_v1.2.,2013-01-19 10:30:00,
2013-01-19 05:35:00,31.0,26.1,30.47,SSE,163,0.0,3.0,82,0.00,,,0.00,HR-IXPWINDi_r2_v1.2.,2013-01-19 10:35:00,
2013-01-19 05:40:00,30.3,25.7,30.47,South,172,1.0,2.0,83,0.00,,,0.00,HR-IXPWINDi_r2_v1.2.,2013-01-19 10:40:00,
2013-01-19 05:45:00,29.8,25.8,30.48,SE,133,0.0,3.0,85,0.00,,,0.00,HR-IXPWINDi_r2_v1.2.,2013-01-19 10:45:00,
2013-01-19 05:51:00,29.2,25.2,30.48,SE,133,0.0,3.0,85,0.00,,,0.00,HR-IXPWINDi_r2_v1.2.,2013-01-19 10:51:00,
2013-01-19 05:56:00,28.8,25.4,30.48,SE,133,0.0,1.0,87,0.00,,,0.00,HR-IXPWINDi_r2_v1.2.,2013-01-19 10:56:00,
2013-01-19 06:01:00,28.5,25.1,30.48,SE,133,0.0,1.0,87,0.00,,,0.00,HR-IXPWINDi_r2_v1.2.,2013-01-19 11:01:00,
2013-01-19 06:06:00,28.2,25.1,30.48,SE,133,0.0,1.0,88,0.00,,,0.00,HR-IXPWINDi_r2_v1.2.,2013-01-19 11:06:00,
2013-01-19 06:11:00,28.0,24.9,30.48,SE,133,0.0,1.0,88,0.00,,,0.00,HR-IXPWINDi_r2_v1.2.,2013-01-19 11:11:00,
2013-01-19 07:47:00,29.0,25.6,30.47,East,87,3.0,7.0,87,0.00,,,0.00,HR-IXPWINDi_r2_v1.2.,2013-01-19 12:47:00,
2013-01-19 07:48:00,29.0,25.6,30.48,ESE,107,0.0,7.0,87,0.00,,,0.00,HR-IXPWINDi_r2_v1.2.,2013-01-19 12:48:00,
2013-01-19 07:53:00,28.8,25.4,30.48,ESE,119,3.0,5.0,87,0.00,,,0.00,HR-IXPWINDi_r2_v1.2.,2013-01-19 12:53:00,
2013-01-19 07:58:00,29.0,25.6,30.48,South,179,2.0,6.0,87,0.00,,,0.00,HR-IXPWINDi_r2_v1.2.,2013-01-19 12:58:00,
2013-01-19 08:03:00,29.4,25.7,30.47,East,87,2.0,7.0,86,0.00,,,0.00,HR-IXPWINDi_r2_v1.2.,2013-01-19 13:03:00,
2013-01-19 08:08:00,29.4,25.7,30.47,ENE,74,2.0,7.0,86,0.00,,,0.00,HR-IXPWINDi_r2_v1.2.,2013-01-19 13:08:00,
2013-01-19 08:13:00,29.3,25.9,30.47,SSW,206,4.0,6.0,87,0.00,,,0.00,HR-IXPWINDi_r2_v1.2.,2013-01-19 13:13:00,
2013-01-19 08:18:00,29.9,25.9,30.47,West,280,2.0,9.0,85,0.00,,,0.00,HR-IXPWINDi_r2_v1.2.,2013-01-19 13:18:00,
2013-01-19 08:23:00,30.2,26.2,30.47,SE,146,2.0,9.0,85,0.00,,,0.00,HR-IXPWINDi_r2_v1.2.,2013-01-19 13:23:00,
2013-01-19 08:29:00,30.6,26.3,30.47,SE,129,3.0,9.0,84,0.00,,,0.00,HR-IXPWINDi_r2_v1.2.,2013-01-19 13:29:00,
2013-01-19 08:34:00,30.5,26.5,30.47,SE,144,3.0,9.0,85,0.00,,,0.00,HR-IXPWINDi_r2_v1.2.,2013-01-19 13:34:00,
2013-01-19 08:39:00,30.3,26.3,30.47,South,176,1.0,8.0,85,0.00,,,0.00,HR-IXPWINDi_r2_v1.2.,2013-01-19 13:39:00,
2013-01-19 08:44:00,30.4,26.4,30.47,SSW,201,2.0,8.0,85,0.00,,,0.00,HR-IXPWINDi_r2_v1.2.,2013-01-19 13:44:00,
2013-01-19 08:49:00,30.8,26.8,30.48,SSE,147,0.0,7.0,85,0.00,,,0.00,HR-IXPWINDi_r2_v1.2.,2013-01-19 13:49:00,
2013-01-19 08:55:00,30.7,26.7,30.47,East,91,2.0,5.0,85,0.00,,,0.00,HR-IXPWINDi_r2_v1.2.,2013-01-19 13:55:00,
2013-01-19 09:00:00,30.9,26.9,30.47,SSE,163,1.0,13.0,85,0.00,,,0.00,HR-IXPWINDi_r2_v1.2.,2013-01-19 14:00:00,
2013-01-19 09:05:00,31.7,26.8,30.47,SSE,160,3.0,14.0,82,0.00,,,0.00,HR-IXPWINDi_r2_v1.2.,2013-01-19 14:05:00,
2013-01-19 09:10:00,32.5,27.0,30.47,WSW,255,2.0,14.0,80,0.00,,,0.00,HR-IXPWINDi_r2_v1.2.,2013-01-19 14:10:00,
2013-01-19 09:15:00,33.0,26.9,30.47,East,82,1.0,12.0,78,0.00,,,0.00,HR-IXPWINDi_r2_v1.2.,2013-01-19 14:15:00,
2013-01-19 09:20:00,33.5,27.1,30.47,NW,313,2.0,14.0,77,0.00,,,0.00,HR-IXPWINDi_r2_v1.2.,2013-01-19 14:20:00,
2013-01-19 09:26:00,33.8,27.3,30.47,ENE,67,1.0,14.0,77,0.00,,,0.00,HR-IXPWINDi_r2_v1.2.,2013-01-19 14:26:00,
2013-01-19 09:31:00,33.9,27.1,30.47,NE,46,1.0,7.0,76,0.00,,,0.00,HR-IXPWINDi_r2_v1.2.,2013-01-19 14:31:00,
2013-01-19 09:36:00,34.1,27.3,30.47,NNE,22,0.0,10.0,76,0.00,,,0.00,HR-IXPWINDi_r2_v1.2.,2013-01-19 14:36:00,
2013-01-19 09:41:00,34.1,27.3,30.47,NNW,347,1.0,10.0,76,0.00,,,0.00,HR-IXPWINDi_r2_v1.2.,2013-01-19 14:41:00,
2013-01-19 09:46:00,34.1,27.3,30.47,North,355,1.0,6.0,76,0.00,,,0.00,HR-IXPWINDi_r2_v1.2.,2013-01-19 14:46:00,
2013-01-19 09:51:00,34.3,27.5,30.47,SW,219,0.0,5.0,76,0.00,,,0.00,HR-IXPWINDi_r2_v1.2.,2013-01-19 14:51:00,
2013-01-19 09:56:00,34.6,27.8,30.47,SSW,201,0.0,4.0,76,0.00,,,0.00,HR-IXPWINDi_r2_v1.2.,2013-01-19 14:56:00,
2013-01-19 10:02:00,34.9,27.8,30.47,SSE,166,5.0,5.0,75,0.00,,,0.00,HR-IXPWINDi_r2_v1.2.,2013-01-19 15:02:00,
2013-01-19 10:07:00,35.5,27.7,30.47,SSW,193,4.0,9.0,73,0.00,,,0.00,HR-IXPWINDi_r2_v1.2.,2013-01-19 15:07:00,
2013-01-19 10:12:00,36.0,27.8,30.47,West,267,0.0,9.0,72,0.00,,,0.00,HR-IXPWINDi_r2_v1.2.,2013-01-19 15:12:00,
2013-01-19 10:17:00,36.5,28.3,30.46,North,355,1.0,7.0,72,0.00,,,0.00,HR-IXPWINDi_r2_v1.2.,2013-01-19 15:17:00,
2013-01-19 10:22:00,36.8,28.3,30.46,WNW,302,0.0,7.0,71,0.00,,,0.00,HR-IXPWINDi_r2_v1.2.,2013-01-19 15:22:00,
2013-01-19 10:28:00,37.0,28.5,30.46,NNW,333,0.0,4.0,71,0.00,,,0.00,HR-IXPWINDi_r2_v1.2.,2013-01-19 15:28:00,
2013-01-19 10:33:00,37.3,28.4,30.45,NNW,330,1.0,4.0,70,0.00,,,0.00,HR-IXPWINDi_r2_v1.2.,2013-01-19 15:33:00,
2013-01-19 10:38:00,37.6,28.7,30.45,South,176,4.0,4.0,70,0.00,,,0.00,HR-IXPWINDi_r2_v1.2.,2013-01-19 15:38:00,
2013-01-19 10:43:00,37.8,28.9,30.45,NNW,340,1.0,7.0,70,0.00,,,0.00,HR-IXPWINDi_r2_v1.2.,2013-01-19 15:43:00,
2013-01-19 10:48:00,38.2,28.9,30.45,ESE,112,3.0,8.0,69,0.00,,,0.00,HR-IXPWINDi_r2_v1.2.,2013-01-19 15:48:00,
2013-01-19 10:53:00,38.5,29.5,30.44,SSW,208,2.0,8.0,70,0.00,,,0.00,HR-IXPWINDi_r2_v1.2.,2013-01-19 15:53:00,
2013-01-19 10:58:00,38.6,29.6,30.44,NW,318,2.0,5.0,70,0.00,,,0.00,HR-IXPWINDi_r2_v1.2.,2013-01-19 15:58:00,
2013-01-19 11:03:00,38.8,29.5,30.44,WSW,253,1.0,5.0,69,0.00,,,0.00,HR-IXPWINDi_r2_v1.2.,2013-01-19 16:03:00,
2013-01-19 11:09:00,39.0,29.3,30.43,NW,306,1.0,5.0,68,0.00,,,0.00,HR-IXPWINDi_r2_v1.2.,2013-01-19 16:09:00,
2013-01-19 11:14:00,39.3,29.6,30.43,West,260,3.0,5.0,68,0.00,,,0.00,HR-IXPWINDi_r2_v1.2.,2013-01-19 16:14:00,
2013-01-19 11:19:00,39.3,29.6,30.43,West,261,1.0,5.0,68,0.00,,,0.00,HR-IXPWINDi_r2_v1.2.,2013-01-19 16:19:00,
2013-01-19 11:24:00,39.5,30.1,30.42,South,180,1.0,7.0,69,0.00,,,0.00,HR-IXPWINDi_r2_v1.2.,2013-01-19 16:24:00,
2013-01-19 11:29:00,39.6,30.6,30.41,SW,215,0.0,7.0,70,0.00,,,0.00,HR-IXPWINDi_r2_v1.2.,2013-01-19 16:29:00,
2013-01-19 11:34:00,39.7,29.6,30.41,NW,323,0.0,3.0,67,0.00,,,0.00,HR-IXPWINDi_r2_v1.2.,2013-01-19 16:34:00,
2013-01-19 11:39:00,39.8,30.4,30.41,NW,316,2.0,5.0,69,0.00,,,0.00,HR-IXPWINDi_r2_v1.2.,2013-01-19 16:39:00,
2013-01-19 11:45:00,40.1,30.7,30.40,WNW,287,0.0,5.0,69,0.00,,,0.00,HR-IXPWINDi_r2_v1.2.,2013-01-19 16:45:00,
2013-01-19 11:50:00,40.4,30.7,30.40,NW,319,1.0,7.0,68,0.00,,,0.00,HR-IXPWINDi_r2_v1.2.,2013-01-19 16:50:00,
2013-01-19 11:55:00,40.8,30.3,30.39,NW,325,3.0,7.0,66,0.00,,,0.00,HR-IXPWINDi_r2_v1.2.,2013-01-19 16:55:00,
2013-01-19 12:00:00,41.2,31.0,30.39,SSE,155,1.0,6.0,67,0.00,,,0.00,HR-IXPWINDi_r2_v1.2.,2013-01-19 17:00:00,
2013-01-19 12:05:00,41.3,30.8,30.38,WSW,241,2.0,6.0,66,0.00,,,0.00,HR-IXPWINDi_r2_v1.2.,2013-01-19 17:05:00,
2013-01-19 12:10:00,41.8,31.6,30.38,NNW,332,0.0,5.0,67,0.00,,,0.00,HR-IXPWINDi_r2_v1.2.,2013-01-19 17:10:00,
2013-01-19 12:16:00,42.2,31.6,30.37,WNW,295,2.0,3.0,66,0.00,,,0.00,HR-IXPWINDi_r2_v1.2.,2013-01-19 17:16:00,
2013-01-19 12:21:00,42.4,31.4,30.37,SSW,212,1.0,4.0,65,0.00,,,0.00,HR-IXPWINDi_r2_v1.2.,2013-01-19 17:21:00,
2013-01-19 12:26:00,43.1,31.7,30.37,SW,215,1.0,4.0,64,0.00,,,0.01,HR-IXPWINDi_r2_v1.2.,2013-01-19 17:26:00,
2013-01-19 12:31:00,43.4,32.4,30.36,NW,306,0.0,6.0,65,0.00,,,0.01,HR-IXPWINDi_r2_v1.2.,2013-01-19 17:31:00,
2013-01-19 12:36:00,43.5,32.9,30.36,NW,309,0.0,6.0,66,0.00,,,0.01,HR-IXPWINDi_r2_v1.2.,2013-01-19 17:36:00,
2013-01-19 12:41:00,43.9,32.5,30.35,SE,132,0.0,3.0,64,0.00,,,0.01,HR-IXPWINDi_r2_v1.2.,2013-01-19 17:41:00,
2013-01-19 12:46:00,44.3,33.2,30.35,ESE,107,0.0,5.0,65,0.00,,,0.01,HR-IXPWINDi_r2_v1.2.,2013-01-19 17:46:00,
2013-01-19 12:51:00,44.4,31.8,30.35,East,90,0.0,5.0,61,0.00,,,0.01,HR-IXPWINDi_r2_v1.2.,2013-01-19 17:51:00,
2013-01-19 12:56:00,44.7,32.5,30.35,East,90,1.0,2.0,62,0.00,,,0.02,HR-IXPWINDi_r2_v1.2.,2013-01-19 17:56:00,
2013-01-19 13:01:00,44.7,31.6,30.34,ESE,105,2.0,2.0,60,0.00,,,0.02,HR-IXPWINDi_r2_v1.2.,2013-01-19 18:01:00,
2013-01-19 13:07:00,44.9,33.4,30.34,ESE,103,0.0,2.0,64,0.08,,,0.03,HR-IXPWINDi_r2_v1.2.,2013-01-19 18:07:00,
2013-01-19 13:12:00,45.2,31.7,30.33,ESE,119,0.0,2.0,59,0.08,,,0.04,HR-IXPWINDi_r2_v1.2.,2013-01-19 18:12:00,
2013-01-19 13:17:00,45.3,32.2,30.33,ESE,102,1.0,2.0,60,0.08,,,0.04,HR-IXPWINDi_r2_v1.2.,2013-01-19 18:17:00,
2013-01-19 13:23:00,45.4,33.1,30.32,ESE,116,1.0,2.0,62,0.05,,,0.04,HR-IXPWINDi_r2_v1.2.,2013-01-19 18:23:00,
2013-01-19 13:28:00,45.6,32.1,30.32,East,87,0.0,2.0,59,0.04,,,0.05,HR-IXPWINDi_r2_v1.2.,2013-01-19 18:28:00,
2013-01-19 13:33:00,45.7,32.6,30.32,East,88,2.0,2.0,60,0.08,,,0.06,HR-IXPWINDi_r2_v1.2.,2013-01-19 18:33:00,
2013-01-19 13:38:00,45.8,32.7,30.32,ESE,103,2.0,3.0,60,0.08,,,0.06,HR-IXPWINDi_r2_v1.2.,2013-01-19 18:38:00,
2013-01-19 13:44:00,46.0,33.3,30.31,ESE,103,1.0,3.0,61,0.05,,,0.06,HR-IXPWINDi_r2_v1.2.,2013-01-19 18:44:00,
2013-01-19 13:49:00,46.1,33.0,30.31,ESE,103,0.0,2.0,60,0.04,,,0.06,HR-IXPWINDi_r2_v1.2.,2013-01-19 18:49:00,
2013-01-19 13:54:00,46.4,32.8,30.31,ESE,103,0.0,1.0,59,0.00,,,0.06,HR-IXPWINDi_r2_v1.2.,2013-01-19 18:54:00,
2013-01-19 13:59:00,46.7,32.7,30.31,ESE,103,0.0,1.0,58,0.00,,,0.07,HR-IXPWINDi_r2_v1.2.,2013-01-19 18:59:00,
2013-01-19 14:05:00,46.7,31.8,30.30,ESE,103,0.0,2.0,56,0.00,,,0.07,HR-IXPWINDi_r2_v1.2.,2013-01-19 19:05:00,
2013-01-19 14:10:00,46.7,32.7,30.30,ESE,103,0.0,2.0,58,0.00,,,0.07,HR-IXPWINDi_r2_v1.2.,2013-01-19 19:10:00,
2013-01-19 14:15:00,46.8,31.5,30.30,East,84,0.0,3.0,55,0.00,,,0.07,HR-IXPWINDi_r2_v1.2.,2013-01-19 19:15:00,
2013-01-19 14:20:00,46.9,32.9,30.30,East,84,0.0,3.0,58,0.00,,,0.08,HR-IXPWINDi_r2_v1.2.,2013-01-19 19:20:00,
2013-01-19 14:25:00,47.0,31.6,30.29,East,84,0.0,3.0,55,0.00,,,0.08,HR-IXPWINDi_r2_v1.2.,2013-01-19 19:25:00,
2013-01-19 14:30:00,47.2,31.8,30.29,East,84,1.0,2.0,55,0.00,,,0.08,HR-IXPWINDi_r2_v1.2.,2013-01-19 19:30:00,
2013-01-19 14:36:00,47.6,30.8,30.29,WSW,253,2.0,4.0,52,0.00,,,0.08,HR-IXPWINDi_r2_v1.2.,2013-01-19 19:36:00,
2013-01-19 14:42:00,47.5,33.0,30.28,NE,46,3.0,8.0,57,0.00,,,0.09,HR-IXPWINDi_r2_v1.2.,2013-01-19 19:42:00,
2013-01-19 14:47:00,47.5,28.8,30.28,NNE,32,2.0,9.0,48,0.00,,,0.09,HR-IXPWINDi_r2_v1.2.,2013-01-19 19:47:00,
2013-01-19 14:52:00,47.8,30.0,30.28,North,9,0.0,9.0,50,0.00,,,0.09,HR-IXPWINDi_r2_v1.2.,2013-01-19 19:52:00,
2013-01-19 14:57:00,48.0,28.2,30.28,South,175,0.0,8.0,46,0.00,,,0.09,HR-IXPWINDi_r2_v1.2.,2013-01-19 19:57:00,
2013-01-19 15:02:00,48.2,27.3,30.28,NW,311,3.0,8.0,44,0.00,,,0.09,HR-IXPWINDi_r2_v1.2.,2013-01-19 20:02:00,
2013-01-19 15:08:00,48.0,29.2,30.27,WNW,303,0.0,4.0,48,0.00,,,0.10,HR-IXPWINDi_r2_v1.2.,2013-01-19 20:08:00,
2013-01-19 15:13:00,47.8,28.0,30.27,East,93,2.0,7.0,46,0.00,,,0.10,HR-IXPWINDi_r2_v1.2.,2013-01-19 20:13:00,
2013-01-19 15:18:00,47.8,28.5,30.27,SE,138,1.0,7.0,47,0.00,,,0.10,HR-IXPWINDi_r2_v1.2.,2013-01-19 20:18:00,
2013-01-19 15:23:00,47.8,29.5,30.27,East,79,2.0,4.0,49,0.05,,,0.11,HR-IXPWINDi_r2_v1.2.,2013-01-19 20:23:00,
2013-01-19 15:28:00,47.8,29.0,30.26,NNE,26,0.0,6.0,48,0.05,,,0.11,HR-IXPWINDi_r2_v1.2.,2013-01-19 20:28:00,
2013-01-19 15:34:00,47.7,27.4,30.26,NW,307,4.0,6.0,45,0.04,,,0.11,HR-IXPWINDi_r2_v1.2.,2013-01-19 20:34:00,
2013-01-19 15:39:00,47.9,27.6,30.26,NW,315,2.0,9.0,45,0.00,,,0.11,HR-IXPWINDi_r2_v1.2.,2013-01-19 20:39:00,
2013-01-19 15:44:00,47.9,27.0,30.26,NNE,17,1.0,9.0,44,0.00,,,0.12,HR-IXPWINDi_r2_v1.2.,2013-01-19 20:44:00,
2013-01-19 15:49:00,47.8,28.0,30.26,WNW,303,0.0,5.0,46,0.00,,,0.12,HR-IXPWINDi_r2_v1.2.,2013-01-19 20:49:00,
2013-01-19 15:54:00,47.9,28.1,30.26,NW,310,0.0,7.0,46,0.00,,,0.12,HR-IXPWINDi_r2_v1.2.,2013-01-19 20:54:00,
2013-01-19 15:59:00,48.1,28.3,30.25,WSW,254,1.0,7.0,46,0.04,,,0.13,HR-IXPWINDi_r2_v1.2.,2013-01-19 20:59:00,
2013-01-19 16:05:00,48.1,27.2,30.25,West,265,0.0,4.0,44,0.04,,,0.13,HR-IXPWINDi_r2_v1.2.,2013-01-19 21:05:00,
2013-01-19 16:10:00,48.0,26.6,30.25,East,84,2.0,5.0,43,0.04,,,0.13,HR-IXPWINDi_r2_v1.2.,2013-01-19 21:10:00,
2013-01-19 16:15:00,48.0,24.8,30.25,SW,220,1.0,17.0,40,0.00,,,0.13,HR-IXPWINDi_r2_v1.2.,2013-01-19 21:15:00,
2013-01-19 16:20:00,48.2,25.0,30.25,SSW,195,1.0,17.0,40,0.00,,,0.13,HR-IXPWINDi_r2_v1.2.,2013-01-19 21:20:00,
2013-01-19 16:25:00,48.1,26.1,30.24,South,186,2.0,6.0,42,0.00,,,0.14,HR-IXPWINDi_r2_v1.2.,2013-01-19 21:25:00,
2013-01-19 16:30:00,47.9,25.9,30.24,South,190,2.0,4.0,42,0.00,,,0.14,HR-IXPWINDi_r2_v1.2.,2013-01-19 21:30:00,
2013-01-19 16:36:00,47.3,26.5,30.24,SSW,207,0.0,3.0,44,0.00,,,0.14,HR-IXPWINDi_r2_v1.2.,2013-01-19 21:36:00,
2013-01-19 16:41:00,46.9,25.0,30.24,SW,224,0.0,4.0,42,0.00,,,0.14,HR-IXPWINDi_r2_v1.2.,2013-01-19 21:41:00,
2013-01-19 16:46:00,46.6,26.4,30.24,SW,223,0.0,4.0,45,0.00,,,0.14,HR-IXPWINDi_r2_v1.2.,2013-01-19 21:46:00,
2013-01-19 16:52:00,46.2,25.5,30.24,SW,224,0.0,2.0,44,0.00,,,0.14,HR-IXPWINDi_r2_v1.2.,2013-01-19 21:52:00,
2013-01-19 16:57:00,46.0,25.8,30.24,SSW,198,0.0,3.0,45,0.00,,,0.14,HR-IXPWINDi_r2_v1.2.,2013-01-19 21:57:00,
2013-01-19 17:02:00,45.6,27.5,30.24,SE,129,0.0,3.0,49,0.00,,,0.14,HR-IXPWINDi_r2_v1.2.,2013-01-19 22:02:00,
2013-01-19 17:09:00,45.4,25.8,30.24,SSE,162,0.0,5.0,46,0.00,,,0.14,HR-IXPWINDi_r2_v1.2.,2013-01-19 22:09:00,
2013-01-19 17:15:00,45.4,25.3,30.24,SW,223,0.0,5.0,45,0.00,,,0.14,HR-IXPWINDi_r2_v1.2.,2013-01-19 22:15:00,
2013-01-19 17:20:00,45.3,26.2,30.24,South,186,0.0,5.0,47,0.00,,,0.14,HR-IXPWINDi_r2_v1.2.,2013-01-19 22:20:00,
2013-01-19 17:25:00,45.0,26.0,30.23,South,188,0.0,5.0,47,0.00,,,0.14,HR-IXPWINDi_r2_v1.2.,2013-01-19 22:25:00,
2013-01-19 17:30:00,44.5,27.9,30.23,South,188,1.0,2.0,52,0.00,,,0.15,HR-IXPWINDi_r2_v1.2.,2013-01-19 22:30:00,
2013-01-19 17:35:00,44.0,27.0,30.23,South,188,1.0,2.0,51,0.00,,,0.15,HR-IXPWINDi_r2_v1.2.,2013-01-19 22:35:00,
2013-01-19 17:40:00,43.5,28.8,30.23,South,188,0.0,2.0,56,0.00,,,0.15,HR-IXPWINDi_r2_v1.2.,2013-01-19 22:40:00,
2013-01-19 17:45:00,42.8,28.2,30.23,South,188,0.0,2.0,56,0.00,,,0.15,HR-IXPWINDi_r2_v1.2.,2013-01-19 22:45:00,
2013-01-19 17:50:00,42.1,28.4,30.23,South,188,0.0,2.0,58,0.00,,,0.15,HR-IXPWINDi_r2_v1.2.,2013-01-19 22:50:00,
2013-01-19 17:56:00,41.3,29.6,30.23,South,182,2.0,2.0,63,0.00,,,0.15,HR-IXPWINDi_r2_v1.2.,2013-01-19 22:56:00,
2013-01-19 18:01:00,40.5,30.4,30.23,South,182,0.0,2.0,67,0.00,,,0.15,HR-IXPWINDi_r2_v1.2.,2013-01-19 23:01:00,
2013-01-19 18:07:00,39.8,29.0,30.23,South,182,1.0,2.0,65,0.00,,,0.15,HR-IXPWINDi_r2_v1.2.,2013-01-19 23:07:00,
2013-01-19 18:12:00,39.4,30.1,30.23,South,182,1.0,2.0,69,0.00,,,0.15,HR-IXPWINDi_r2_v1.2.,2013-01-19 23:12:00,
2013-01-19 18:17:00,38.9,29.6,30.23,South,182,0.0,2.0,69,0.00,,,0.15,HR-IXPWINDi_r2_v1.2.,2013-01-19 23:17:00,
2013-01-19 18:23:00,38.4,30.1,30.23,South,181,1.0,2.0,72,0.00,,,0.15,HR-IXPWINDi_r2_v1.2.,2013-01-19 23:23:00,
2013-01-19 18:28:00,38.0,29.8,30.23,South,181,1.0,2.0,72,0.00,,,0.15,HR-IXPWINDi_r2_v1.2.,2013-01-19 23:28:00,
2013-01-19 18:33:00,37.8,30.2,30.23,South,181,1.0,3.0,74,0.00,,,0.15,HR-IXPWINDi_r2_v1.2.,2013-01-19 23:33:00,
2013-01-19 18:38:00,37.5,30.3,30.23,South,182,1.0,3.0,75,0.00,,,0.15,HR-IXPWINDi_r2_v1.2.,2013-01-19 23:38:00,
2013-01-19 18:44:00,37.3,30.7,30.23,South,178,1.0,3.0,77,0.00,,,0.15,HR-IXPWINDi_r2_v1.2.,2013-01-19 23:44:00,
2013-01-19 18:49:00,37.1,30.9,30.23,South,185,0.0,3.0,78,0.00,,,0.15,HR-IXPWINDi_r2_v1.2.,2013-01-19 23:49:00,
2013-01-19 18:55:00,36.9,30.3,30.23,South,186,1.0,2.0,77,0.00,,,0.15,HR-IXPWINDi_r2_v1.2.,2013-01-19 23:55:00,
2013-01-19 19:01:00,37.1,30.2,30.23,South,185,0.0,1.0,76,0.00,,,0.15,HR-IXPWINDi_r2_v1.2.,2013-01-20 00:01:00,
2013-01-19 19:06:00,37.3,30.7,30.23,South,185,0.0,2.0,77,0.00,,,0.15,HR-IXPWINDi_r2_v1.2.,2013-01-20 00:06:00,
2013-01-19 19:11:00,37.6,30.4,30.23,West,279,0.0,2.0,75,0.00,,,0.15,HR-IXPWINDi_r2_v1.2.,2013-01-20 00:11:00,
2013-01-19 19:16:00,37.8,30.6,30.23,West,279,0.0,2.0,75,0.00,,,0.15,HR-IXPWINDi_r2_v1.2.,2013-01-20 00:16:00,
2013-01-19 19:21:00,37.7,31.1,30.23,West,279,0.0,2.0,77,0.00,,,0.15,HR-IXPWINDi_r2_v1.2.,2013-01-20 00:21:00,
2013-01-19 19:27:00,37.5,30.3,30.23,West,279,0.0,2.0,75,0.00,,,0.15,HR-IXPWINDi_r2_v1.2.,2013-01-20 00:27:00,
2013-01-19 19:32:00,37.3,29.8,30.23,West,278,1.0,3.0,74,0.00,,,0.15,HR-IXPWINDi_r2_v1.2.,2013-01-20 00:32:00,
2013-01-19 19:37:00,37.3,30.1,30.23,West,278,0.0,3.0,75,0.00,,,0.15,HR-IXPWINDi_r2_v1.2.,2013-01-20 00:37:00,
2013-01-19 19:43:00,37.3,29.8,30.23,South,173,1.0,3.0,74,0.00,,,0.15,HR-IXPWINDi_r2_v1.2.,2013-01-20 00:43:00,
2013-01-19 19:48:00,37.4,30.5,30.22,ENE,67,0.0,3.0,76,0.00,,,0.15,HR-IXPWINDi_r2_v1.2.,2013-01-20 00:48:00,
2013-01-19 19:53:00,37.1,29.9,30.22,WNW,300,2.0,3.0,75,0.00,,,0.15,HR-IXPWINDi_r2_v1.2.,2013-01-20 00:53:00,
2013-01-19 19:58:00,37.2,30.3,30.22,WNW,300,0.0,3.0,76,0.00,,,0.15,HR-IXPWINDi_r2_v1.2.,2013-01-20 00:58:00,
2013-01-19 20:03:00,37.1,30.9,30.22,ESE,123,1.0,3.0,78,0.00,,,0.15,HR-IXPWINDi_r2_v1.2.,2013-01-20 01:03:00,
2013-01-19 20:08:00,36.8,30.9,30.22,SSE,164,1.0,3.0,79,0.00,,,0.15,HR-IXPWINDi_r2_v1.2.,2013-01-20 01:08:00,
2013-01-19 20:13:00,36.6,30.4,30.22,SSE,166,0.0,2.0,78,0.00,,,0.15,HR-IXPWINDi_r2_v1.2.,2013-01-20 01:13:00,
2013-01-19 20:18:00,36.4,30.8,30.22,South,170,0.0,2.0,80,0.00,,,0.15,HR-IXPWINDi_r2_v1.2.,2013-01-20 01:18:00,
2013-01-19 20:23:00,36.1,30.5,30.22,South,173,0.0,3.0,80,0.00,,,0.15,HR-IXPWINDi_r2_v1.2.,2013-01-20 01:23:00,
2013-01-19 20:29:00,36.1,30.5,30.22,South,173,0.0,3.0,80,0.00,,,0.15,HR-IXPWINDi_r2_v1.2.,2013-01-20 01:29:00,
2013-01-19 20:34:00,36.0,30.4,30.21,SSE,153,2.0,2.0,80,0.00,,,0.15,HR-IXPWINDi_r2_v1.2.,2013-01-20 01:34:00,
2013-01-19 20:39:00,35.9,30.6,30.21,SSE,147,0.0,3.0,81,0.00,,,0.15,HR-IXPWINDi_r2_v1.2.,2013-01-20 01:39:00,
2013-01-19 20:44:00,36.1,30.8,30.21,SSE,153,2.0,3.0,81,0.00,,,0.15,HR-IXPWINDi_r2_v1.2.,2013-01-20 01:44:00,
2013-01-19 20:49:00,36.2,30.6,30.21,SSE,150,1.0,3.0,80,0.00,,,0.15,HR-IXPWINDi_r2_v1.2.,2013-01-20 01:49:00,
2013-01-19 20:55:00,36.3,31.0,30.21,SSE,147,3.0,3.0,81,0.00,,,0.15,HR-IXPWINDi_r2_v1.2.,2013-01-20 01:55:00,
2013-01-19 20:59:00,36.3,31.0,30.21,SE,132,0.0,4.0,81,0.00,,,0.15,HR-IXPWINDi_r2_v1.2.,2013-01-20 01:59:00,
2013-01-19 21:05:00,36.2,30.9,30.21,SE,136,0.0,4.0,81,0.00,,,0.15,HR-IXPWINDi_r2_v1.2.,2013-01-20 02:05:00,
2013-01-19 21:10:00,35.9,30.9,30.20,ESE,106,1.0,4.0,82,0.00,,,0.15,HR-IXPWINDi_r2_v1.2.,2013-01-20 02:10:00,
2013-01-19 21:15:00,35.7,31.0,30.20,SE,142,0.0,4.0,83,0.00,,,0.15,HR-IXPWINDi_r2_v1.2.,2013-01-20 02:15:00,
2013-01-19 21:20:00,35.4,30.7,30.20,SE,142,0.0,2.0,83,0.00,,,0.15,HR-IXPWINDi_r2_v1.2.,2013-01-20 02:20:00,
2013-01-19 21:26:00,35.3,30.9,30.20,WNW,302,1.0,3.0,84,0.00,,,0.15,HR-IXPWINDi_r2_v1.2.,2013-01-20 02:26:00,
2013-01-19 21:31:00,35.6,30.9,30.20,NW,304,3.0,4.0,83,0.00,,,0.15,HR-IXPWINDi_r2_v1.2.,2013-01-20 02:31:00,
2013-01-19 21:36:00,37.0,31.4,30.20,NW,304,0.0,5.0,80,0.00,,,0.15,HR-IXPWINDi_r2_v1.2.,2013-01-20 02:36:00,
2013-01-19 21:41:00,37.4,31.8,30.20,WNW,286,2.0,5.0,80,0.00,,,0.15,HR-IXPWINDi_r2_v1.2.,2013-01-20 02:41:00,
2013-01-19 21:46:00,37.2,31.6,30.19,NW,311,3.0,5.0,80,0.00,,,0.15,HR-IXPWINDi_r2_v1.2.,2013-01-20 02:46:00,
2013-01-19 21:52:00,37.6,31.7,30.19,NW,309,2.0,5.0,79,0.00,,,0.15,HR-IXPWINDi_r2_v1.2.,2013-01-20 02:52:00,
2013-01-19 21:57:00,38.0,31.4,30.19,SSW,211,1.0,5.0,77,0.00,,,0.15,HR-IXPWINDi_r2_v1.2.,2013-01-20 02:57:00,
2013-01-19 22:02:00,38.2,31.6,30.19,WNW,296,0.0,4.0,77,0.00,,,0.15,HR-IXPWINDi_r2_v1.2.,2013-01-20 03:02:00,
2013-01-19 22:07:00,38.3,31.7,30.19,WNW,296,0.0,4.0,77,0.00,,,0.15,HR-IXPWINDi_r2_v1.2.,2013-01-20 03:07:00,
2013-01-19 22:13:00,38.3,31.4,30.19,NNW,348,0.0,4.0,76,0.00,,,0.15,HR-IXPWINDi_r2_v1.2.,2013-01-20 03:13:00,
2013-01-19 22:18:00,38.8,31.9,30.18,NW,321,0.0,4.0,76,0.00,,,0.15,HR-IXPWINDi_r2_v1.2.,2013-01-20 03:18:00,
2013-01-19 22:23:00,39.1,31.5,30.18,WNW,293,0.0,4.0,74,0.00,,,0.15,HR-IXPWINDi_r2_v1.2.,2013-01-20 03:23:00,
2013-01-19 22:28:00,39.4,31.4,30.18,NNW,331,2.0,4.0,73,0.00,,,0.15,HR-IXPWINDi_r2_v1.2.,2013-01-20 03:28:00,
2013-01-19 22:33:00,39.8,31.8,30.18,NW,325,0.0,3.0,73,0.00,,,0.15,HR-IXPWINDi_r2_v1.2.,2013-01-20 03:33:00,
2013-01-19 22:38:00,40.0,31.7,30.17,NNW,334,5.0,6.0,72,0.00,,,0.15,HR-IXPWINDi_r2_v1.2.,2013-01-20 03:38:00,
2013-01-19 22:43:00,40.0,31.7,30.17,NNW,328,1.0,6.0,72,0.00,,,0.15,HR-IXPWINDi_r2_v1.2.,2013-01-20 03:43:00,
2013-01-19 22:49:00,40.1,31.4,30.17,NW,304,0.0,5.0,71,0.00,,,0.15,HR-IXPWINDi_r2_v1.2.,2013-01-20 03:49:00,
2013-01-19 22:54:00,40.1,31.4,30.17,NW,304,0.0,3.0,71,0.00,,,0.15,HR-IXPWINDi_r2_v1.2.,2013-01-20 03:54:00,
2013-01-19 22:59:00,39.9,31.2,30.16,NW,304,0.0,3.0,71,0.00,,,0.15,HR-IXPWINDi_r2_v1.2.,2013-01-20 03:59:00,
2013-01-19 23:04:00,40.0,31.0,30.16,NW,306,0.0,7.0,70,0.00,,,0.16,HR-IXPWINDi_r2_v1.2.,2013-01-20 04:04:00,
2013-01-19 23:10:00,40.2,31.5,30.16,NW,318,1.0,7.0,71,0.00,,,0.16,HR-IXPWINDi_r2_v1.2.,2013-01-20 04:10:00,
2013-01-19 23:15:00,40.2,31.2,30.16,NW,321,3.0,7.0,70,0.00,,,0.16,HR-IXPWINDi_r2_v1.2.,2013-01-20 04:15:00,
2013-01-19 23:20:00,40.0,30.6,30.15,South,184,0.0,5.0,69,0.00,,,0.16,HR-IXPWINDi_r2_v1.2.,2013-01-20 04:20:00,
2013-01-19 23:25:00,40.1,30.7,30.15,NW,314,3.0,5.0,69,0.00,,,0.16,HR-IXPWINDi_r2_v1.2.,2013-01-20 04:25:00,
2013-01-19 23:30:00,40.3,30.9,30.15,SW,231,0.0,7.0,69,0.00,,,0.16,HR-IXPWINDi_r2_v1.2.,2013-01-20 04:30:00,
2013-01-19 23:36:00,40.4,31.4,30.15,WNW,292,2.0,12.0,70,0.00,,,0.16,HR-IXPWINDi_r2_v1.2.,2013-01-20 04:36:00,
2013-01-19 23:41:00,40.4,31.0,30.15,NW,315,0.0,12.0,69,0.00,,,0.16,HR-IXPWINDi_r2_v1.2.,2013-01-20 04:41:00,
2013-01-19 23:46:00,40.5,31.1,30.15,NNW,334,0.0,4.0,69,0.00,,,0.16,HR-IXPWINDi_r2_v1.2.,2013-01-20 04:46:00,
2013-01-19 23:51:00,40.3,30.9,30.14,NNW,328,3.0,8.0,69,0.00,,,0.16,HR-IXPWINDi_r2_v1.2.,2013-01-20 04:51:00,
2013-01-19 23:57:00,40.5,30.7,30.14,West,259,0.0,8.0,68,0.00,,,0.16,HR-IXPWINDi_r2_v1.2.,2013-01-20 04:57:00,